Time;durP1;ratioP1;P1;durP2;ratioP2;P2;SDS_P1;SDS_P2;PMS_P1;PMS_P2;Temp;Humidity;BMP_temperature;BMP_pressure;BME280_temperature;BME280_humidity;BME280_pressure;Samples;Min_cycle;Max_cycle;Signal;HPM_P1;HPM_P2
2023/04/28 00:00:53;;;;;;;0.10;0.10;;;;;;;;;;5071727;28;20124;-75
2023/04/28 00:03:18;;;;;;;2.70;2.50;;;;;;;;;;5074295;28;20031;-75
2023/04/28 00:05:44;;;;;;;0.25;0.25;;;;;;;;;;5074205;28;20111;-76
2023/04/28 00:08:09;;;;;;;0.10;0.10;;;;;;;;;;5077573;28;20086;-76
2023/04/28 00:10:34;;;;;;;0.10;0.10;;;;;;;;;;5094805;28;21270;-76
2023/04/28 00:13:00;;;;;;;0.10;0.10;;;;;;;;;;5094272;28;20475;-77
2023/04/28 00:15:25;;;;;;;0.10;0.10;;;;;;;;;;5094194;28;20036;-76
2023/04/28 00:17:51;;;;;;;0.10;0.10;;;;;;;;;;5094142;28;20055;-75
2023/04/28 00:20:16;;;;;;;0.17;0.17;;;;;;;;;;5094335;28;20489;-76
2023/04/28 00:22:42;;;;;;;0.10;0.10;;;;;;;;;;5093469;28;20480;-76
2023/04/28 00:25:08;;;;;;;0.10;0.10;;;;;;;;;;5073763;28;20028;-76
2023/04/28 00:27:33;;;;;;;0.10;0.10;;;;;;;;;;5094119;28;20036;-76
2023/04/28 00:29:59;;;;;;;0.10;0.10;;;;;;;;;;5094909;28;20039;-76
2023/04/28 00:32:25;;;;;;;0.17;0.17;;;;;;;;;;5097331;28;20468;-76
2023/04/28 00:34:50;;;;;;;0.10;0.10;;;;;;;;;;5097345;28;20039;-76
2023/04/28 00:37:16;;;;;;;0.10;0.10;;;;;;;;;;5095632;28;20460;-75
2023/04/28 00:39:45;;;;;;;0.10;0.10;;;;;;;;;;5061918;28;20035;-76
2023/04/28 00:42:11;;;;;;;;;;;;;;;;;;5074790;28;20036;-75
2023/04/28 00:44:36;;;;;;;0.10;0.10;;;;;;;;;;5073737;28;19999;-75
2023/04/28 00:47:01;;;;;;;0.20;0.20;;;;;;;;;;5055795;28;20082;-75
2023/04/28 00:49:27;;;;;;;0.20;0.20;;;;;;;;;;5055876;28;20033;-76
2023/04/28 00:51:53;;;;;;;0.10;0.10;;;;;;;;;;5072573;28;20398;-76
2023/04/28 00:54:18;;;;;;;0.65;0.65;;;;;;;;;;5072333;28;20024;-76
2023/04/28 00:56:44;;;;;;;0.10;0.10;;;;;;;;;;5056029;28;20071;-76
2023/04/28 00:59:09;;;;;;;1.08;1.08;;;;;;;;;;5055455;28;20036;-77
2023/04/28 01:01:35;;;;;;;5.70;5.28;;;;;;;;;;5055564;28;20094;-77
2023/04/28 01:04:01;;;;;;;0.10;0.10;;;;;;;;;;5039167;28;20024;-76
2023/04/28 01:06:27;;;;;;;0.10;0.10;;;;;;;;;;5055568;28;20445;-77
2023/04/28 01:08:55;;;;;;;0.10;0.10;;;;;;;;;;5065161;28;20028;-77
2023/04/28 01:11:20;;;;;;;0.10;0.10;;;;;;;;;;5075909;28;20047;-78
2023/04/28 01:14:04;;;;;;;1.17;1.17;;;;;;;;;;5093632;28;20046;-76
2023/04/28 01:16:34;;;;;;;;;;;;;;;;;;5094102;28;20391;-78
2023/04/28 01:18:59;;;;;;;1.25;1.23;;;;;;;;;;5075455;28;19923;-74
2023/04/28 01:21:31;;;;;;;0.40;0.40;;;;;;;;;;5075250;28;20417;-74
2023/04/28 01:24:00;;;;;;;0.10;0.10;;;;;;;;;;5074398;28;20032;-74
2023/04/28 01:26:26;;;;;;;0.17;0.17;;;;;;;;;;5075442;28;20034;-74
2023/04/28 01:28:52;;;;;;;0.10;0.10;;;;;;;;;;5074892;28;20039;-74
2023/04/28 01:31:17;;;;;;;4.03;3.83;;;;;;;;;;5093248;28;20443;-75
2023/04/28 01:33:43;;;;;;;1.00;1.00;;;;;;;;;;5093310;28;20426;-74
2023/04/28 01:36:08;;;;;;;0.10;0.10;;;;;;;;;;5075092;28;20118;-74
2023/04/28 01:38:35;;;;;;;0.32;0.32;;;;;;;;;;5074863;28;20467;-75
2023/04/28 01:41:01;;;;;;;0.15;0.15;;;;;;;;;;5090619;28;20035;-75
2023/04/28 01:43:27;;;;;;;0.20;0.20;;;;;;;;;;5094761;28;20035;-77
2023/04/28 01:45:52;;;;;;;0.30;0.30;;;;;;;;;;5074899;28;20028;-76
2023/04/28 01:48:17;;;;;;;0.10;0.10;;;;;;;;;;5093092;28;20040;-75
2023/04/28 01:50:45;;;;;;;0.13;0.13;;;;;;;;;;5074872;28;20491;-74
2023/04/28 01:53:10;;;;;;;3.78;2.22;;;;;;;;;;5092844;28;20063;-75
2023/04/28 01:55:36;;;;;;;0.40;0.40;;;;;;;;;;5074820;28;20040;-75
2023/04/28 01:58:02;;;;;;;0.10;0.10;;;;;;;;;;5074790;28;20119;-76
2023/04/28 02:00:29;;;;;;;0.10;0.10;;;;;;;;;;5074737;28;20097;-76
2023/04/28 02:02:55;;;;;;;20.67;19.40;;;;;;;;;;5074374;28;20024;-76
2023/04/28 02:05:20;;;;;;;0.10;0.10;;;;;;;;;;5074696;28;20125;-75
2023/04/28 02:07:47;;;;;;;0.10;0.10;;;;;;;;;;5074746;28;20506;-76
2023/04/28 02:10:13;;;;;;;0.10;0.10;;;;;;;;;;5075272;28;20032;-76
2023/04/28 02:12:40;;;;;;;0.10;0.10;;;;;;;;;;5094941;28;20059;-75
2023/04/28 02:15:06;;;;;;;0.20;0.20;;;;;;;;;;5077924;28;20028;-76
2023/04/28 02:17:31;;;;;;;10.50;3.10;;;;;;;;;;5096393;28;20370;-76
2023/04/28 02:19:57;;;;;;;0.10;0.10;;;;;;;;;;5096195;28;20052;-76
2023/04/28 02:22:22;;;;;;;0.15;0.15;;;;;;;;;;5078405;28;20106;-76
2023/04/28 02:24:48;;;;;;;0.15;0.15;;;;;;;;;;5078258;28;20036;-75
2023/04/28 02:27:13;;;;;;;0.82;0.77;;;;;;;;;;5077837;28;20032;-76
2023/04/28 02:29:39;;;;;;;0.30;0.30;;;;;;;;;;5095976;28;20020;-76
2023/04/28 02:32:04;;;;;;;0.10;0.10;;;;;;;;;;5095925;28;20415;-77
2023/04/28 02:34:30;;;;;;;0.17;0.17;;;;;;;;;;5077938;28;20031;-74
2023/04/28 02:36:55;;;;;;;0.20;0.20;;;;;;;;;;5096060;28;20037;-74
2023/04/28 02:39:21;;;;;;;0.10;0.10;;;;;;;;;;5079196;28;20077;-75
2023/04/28 02:41:47;;;;;;;0.10;0.10;;;;;;;;;;5081532;28;20039;-75
2023/04/28 02:44:12;;;;;;;0.10;0.10;;;;;;;;;;5080861;28;20028;-76
2023/04/28 02:46:37;;;;;;;0.10;0.10;;;;;;;;;;5078348;28;20036;-76
2023/04/28 02:49:03;;;;;;;0.10;0.10;;;;;;;;;;5096436;28;20028;-74
2023/04/28 02:51:28;;;;;;;0.20;0.20;;;;;;;;;;5077871;28;20032;-74
2023/04/28 02:53:54;;;;;;;0.10;0.10;;;;;;;;;;5077605;28;20047;-73
2023/04/28 02:56:20;;;;;;;0.10;0.10;;;;;;;;;;5111283;28;20028;-75
2023/04/28 02:58:45;;;;;;;1.38;1.27;;;;;;;;;;5077117;28;20040;-74
2023/04/28 03:01:11;;;;;;;2.92;2.83;;;;;;;;;;5095339;28;20488;-75
2023/04/28 03:03:37;;;;;;;0.10;0.10;;;;;;;;;;5090186;28;20384;-74
2023/04/28 03:06:03;;;;;;;0.73;0.73;;;;;;;;;;5073069;28;20403;-74
2023/04/28 03:08:28;;;;;;;0.10;0.10;;;;;;;;;;5091489;28;20024;-73
2023/04/28 03:10:54;;;;;;;0.40;0.40;;;;;;;;;;5073587;28;20082;-73
2023/04/28 03:13:19;;;;;;;0.10;0.10;;;;;;;;;;5091354;28;20471;-75
2023/04/28 03:15:45;;;;;;;0.10;0.10;;;;;;;;;;5092104;28;20505;-75
2023/04/28 03:18:11;;;;;;;0.10;0.10;;;;;;;;;;5073269;28;20063;-75
2023/04/28 03:20:37;;;;;;;0.30;0.30;;;;;;;;;;5072995;28;20028;-75
2023/04/28 03:23:02;;;;;;;0.10;0.10;;;;;;;;;;5072049;28;20038;-74
2023/04/28 03:25:28;;;;;;;0.30;0.30;;;;;;;;;;5091496;28;20036;-73
2023/04/28 03:27:54;;;;;;;0.65;0.65;;;;;;;;;;5073198;28;20043;-75
2023/04/28 03:30:20;;;;;;;0.15;0.15;;;;;;;;;;5073516;28;20040;-74
2023/04/28 03:32:46;;;;;;;0.20;0.20;;;;;;;;;;5072983;28;20395;-73
2023/04/28 03:35:11;;;;;;;0.10;0.10;;;;;;;;;;5071337;28;20071;-76
2023/04/28 03:37:38;;;;;;;0.40;0.40;;;;;;;;;;5073076;28;20028;-75
2023/04/28 03:40:05;;;;;;;0.20;0.20;;;;;;;;;;5091382;28;20032;-75
2023/04/28 03:42:42;;;;;;;0.63;0.57;;;;;;;;;;5072854;28;20570;-76
2023/04/28 03:45:11;;;;;;;0.10;0.10;;;;;;;;;;5089033;28;20108;-75
2023/04/28 03:47:37;;;;;;;0.40;0.40;;;;;;;;;;5072479;28;20064;-75
2023/04/28 03:50:02;;;;;;;0.30;0.30;;;;;;;;;;5090828;28;20036;-76
2023/04/28 03:52:28;;;;;;;0.63;0.63;;;;;;;;;;5091137;28;20032;-76
2023/04/28 03:54:54;;;;;;;0.10;0.10;;;;;;;;;;5071399;28;20063;-76
2023/04/28 03:57:19;;;;;;;0.10;0.10;;;;;;;;;;5073057;28;20438;-76
2023/04/28 03:59:45;;;;;;;0.10;0.10;;;;;;;;;;5077284;28;20039;-78
2023/04/28 04:02:10;;;;;;;0.17;0.17;;;;;;;;;;5070233;28;20048;-78
2023/04/28 04:04:35;;;;;;;0.10;0.10;;;;;;;;;;5072686;28;20028;-78
2023/04/28 04:07:03;;;;;;;0.17;0.17;;;;;;;;;;5072483;28;20127;-75
2023/04/28 04:09:28;;;;;;;0.45;0.45;;;;;;;;;;5071906;28;20160;-75
2023/04/28 04:11:54;;;;;;;0.30;0.30;;;;;;;;;;5090016;28;20045;-76
2023/04/28 04:14:19;;;;;;;0.10;0.10;;;;;;;;;;5070985;28;20040;-75
2023/04/28 04:16:46;;;;;;;0.43;0.43;;;;;;;;;;5072212;28;20028;-75
2023/04/28 04:19:11;;;;;;;0.20;0.20;;;;;;;;;;5071989;28;20479;-75
2023/04/28 04:21:41;;;;;;;0.20;0.20;;;;;;;;;;5072004;28;20425;-75
2023/04/28 04:24:06;;;;;;;0.20;0.20;;;;;;;;;;5071793;28;20044;-75
2023/04/28 04:26:32;;;;;;;0.10;0.10;;;;;;;;;;5054605;28;20035;-76
2023/04/28 04:28:58;;;;;;;0.30;0.30;;;;;;;;;;5071813;28;20096;-75
2023/04/28 04:31:23;;;;;;;0.10;0.10;;;;;;;;;;5071878;28;20028;-76
2023/04/28 04:33:50;;;;;;;0.25;0.25;;;;;;;;;;5070921;28;20043;-77
2023/04/28 04:36:17;;;;;;;0.20;0.20;;;;;;;;;;5071947;28;20028;-78
2023/04/28 04:38:43;;;;;;;0.10;0.10;;;;;;;;;;5090146;28;20616;-78
2023/04/28 04:41:14;;;;;;;0.65;0.65;;;;;;;;;;5071640;28;20040;-79
2023/04/28 04:43:40;;;;;;;0.10;0.10;;;;;;;;;;5072052;28;20119;-74
2023/04/28 04:46:06;;;;;;;0.10;0.10;;;;;;;;;;5070015;28;20039;-73
2023/04/28 04:48:32;;;;;;;0.10;0.10;;;;;;;;;;5037156;28;20040;-74
2023/04/28 04:50:57;;;;;;;0.20;0.20;;;;;;;;;;5054326;28;20029;-74
2023/04/28 04:53:23;;;;;;;0.35;0.35;;;;;;;;;;5052791;28;20392;-74
2023/04/28 04:55:48;;;;;;;0.10;0.10;;;;;;;;;;5054630;28;20108;-77
2023/04/28 04:58:15;;;;;;;0.10;0.10;;;;;;;;;;5050616;28;20074;-77
2023/04/28 05:00:56;;;;;;;0.10;0.10;;;;;;;;;;5084251;28;20130;-76
2023/04/28 05:03:21;;;;;;;0.20;0.20;;;;;;;;;;5068714;28;20122;-76
2023/04/28 05:05:48;;;;;;;0.10;0.10;;;;;;;;;;5069592;28;20437;-80
2023/04/28 05:08:33;;;;;;;0.10;0.10;;;;;;;;;;5068334;28;20046;-77
2023/04/28 05:10:59;;;;;;;0.20;0.20;;;;;;;;;;5081982;28;20036;-77
2023/04/28 05:13:24;;;;;;;0.10;0.10;;;;;;;;;;5062319;28;20024;-76
2023/04/28 05:15:56;;;;;;;0.10;0.10;;;;;;;;;;5068562;28;20485;-76
2023/04/28 05:18:54;;;;;;;0.10;0.10;;;;;;;;;;5037695;28;20064;-75
2023/04/28 05:21:20;;;;;;;0.10;0.10;;;;;;;;;;5063947;28;20121;-75
2023/04/28 05:23:46;;;;;;;0.35;0.35;;;;;;;;;;5074236;28;20020;-76
2023/04/28 05:26:12;;;;;;;2.25;2.10;;;;;;;;;;5069291;28;20039;-76
2023/04/28 05:28:38;;;;;;;1.75;1.65;;;;;;;;;;5066639;28;20085;-76
2023/04/28 05:31:04;;;;;;;0.10;0.10;;;;;;;;;;5057366;28;20028;-78
2023/04/28 05:33:30;;;;;;;0.10;0.10;;;;;;;;;;5060459;28;20033;-79
2023/04/28 05:35:57;;;;;;;0.15;0.15;;;;;;;;;;5063015;28;20097;-78
2023/04/28 05:38:22;;;;;;;0.10;0.10;;;;;;;;;;5087262;28;20024;-76
2023/04/28 05:40:48;;;;;;;0.10;0.10;;;;;;;;;;5067876;28;20063;-76
2023/04/28 05:43:14;;;;;;;0.43;0.43;;;;;;;;;;5079044;28;20054;-77
2023/04/28 05:45:40;;;;;;;0.10;0.10;;;;;;;;;;5064704;28;20032;-78
2023/04/28 05:48:06;;;;;;;0.10;0.10;;;;;;;;;;5066414;28;20090;-78
2023/04/28 05:50:31;;;;;;;0.20;0.20;;;;;;;;;;5049497;28;20028;-76
2023/04/28 05:53:00;;;;;;;0.10;0.10;;;;;;;;;;5049547;28;20510;-76
2023/04/28 05:55:25;;;;;;;7.28;3.53;;;;;;;;;;5049418;28;20040;-77
2023/04/28 05:57:52;;;;;;;0.10;0.10;;;;;;;;;;5055712;28;20487;-77
2023/04/28 06:00:18;;;;;;;0.10;0.10;;;;;;;;;;5069104;28;20036;-78
2023/04/28 06:02:43;;;;;;;0.10;0.10;;;;;;;;;;5070520;28;20382;-77
2023/04/28 06:05:10;;;;;;;0.10;0.10;;;;;;;;;;5070796;28;20506;-77
2023/04/28 06:07:35;;;;;;;0.10;0.10;;;;;;;;;;5070599;28;20063;-76
2023/04/28 06:10:01;;;;;;;0.10;0.10;;;;;;;;;;5068609;28;20415;-78
2023/04/28 06:12:26;;;;;;;0.10;0.10;;;;;;;;;;5078825;28;20091;-78
2023/04/28 06:14:54;;;;;;;0.03;0.03;;;;;;;;;;5079431;28;20410;-77
2023/04/28 06:17:20;;;;;;;0.10;0.10;;;;;;;;;;5077351;28;20035;-76
2023/04/28 06:19:45;;;;;;;0.10;0.10;;;;;;;;;;5053357;28;20032;-79
2023/04/28 06:22:11;;;;;;;0.10;0.10;;;;;;;;;;5050389;28;20033;-76
2023/04/28 06:24:36;;;;;;;0.10;0.10;;;;;;;;;;5068673;28;20511;-76
2023/04/28 06:27:04;;;;;;;0.20;0.20;;;;;;;;;;5050544;28;20036;-77
2023/04/28 06:29:30;;;;;;;0.10;0.10;;;;;;;;;;5068221;28;20400;-76
2023/04/28 06:31:56;;;;;;;0.10;0.10;;;;;;;;;;5067886;28;20012;-77
2023/04/28 06:34:29;;;;;;;0.10;0.10;;;;;;;;;;5051838;28;20020;-77
2023/04/28 06:36:57;;;;;;;0.10;0.10;;;;;;;;;;5072692;28;20040;-77
2023/04/28 06:39:24;;;;;;;;;;;;;;;;;;5089046;28;20115;-77
2023/04/28 06:41:50;;;;;;;0.17;0.17;;;;;;;;;;5070228;28;20088;-77
2023/04/28 06:44:16;;;;;;;0.20;0.20;;;;;;;;;;5068660;28;20039;-76
2023/04/28 06:46:41;;;;;;;0.13;0.13;;;;;;;;;;5060637;28;20033;-77
2023/04/28 06:49:08;;;;;;;0.15;0.15;;;;;;;;;;5069535;28;20032;-77
2023/04/28 06:51:34;;;;;;;0.20;0.20;;;;;;;;;;5062509;28;20042;-76
2023/04/28 06:54:00;;;;;;;0.20;0.20;;;;;;;;;;5066390;28;20040;-77
2023/04/28 06:56:25;;;;;;;0.20;0.20;;;;;;;;;;5071910;28;20425;-77
2023/04/28 06:58:51;;;;;;;0.20;0.20;;;;;;;;;;5077518;28;20028;-77
2023/04/28 07:01:17;;;;;;;0.22;0.22;;;;;;;;;;5089558;28;20031;-77
2023/04/28 07:03:42;;;;;;;0.20;0.20;;;;;;;;;;5092219;28;20055;-77
2023/04/28 07:06:07;;;;;;;0.20;0.20;;;;;;;;;;5091743;28;20063;-71
2023/04/28 07:08:33;;;;;;;0.20;0.20;;;;;;;;;;5089260;28;20026;-72
2023/04/28 07:10:59;;;;;;;0.20;0.20;;;;;;;;;;5078448;28;20040;-72
2023/04/28 07:13:24;;;;;;;0.20;0.20;;;;;;;;;;5071484;28;20358;-73
2023/04/28 07:15:49;;;;;;;0.25;0.25;;;;;;;;;;5076127;28;20142;-73
2023/04/28 07:18:15;;;;;;;0.65;0.65;;;;;;;;;;5081955;28;20464;-77
2023/04/28 07:20:40;;;;;;;0.28;0.28;;;;;;;;;;5075507;28;20036;-72
2023/04/28 07:23:06;;;;;;;0.20;0.20;;;;;;;;;;5071228;28;20086;-72
2023/04/28 07:25:31;;;;;;;0.20;0.20;;;;;;;;;;5077290;28;20030;-75
2023/04/28 07:27:57;;;;;;;0.20;0.20;;;;;;;;;;5080844;28;20048;-75
2023/04/28 07:30:22;;;;;;;0.20;0.20;;;;;;;;;;5082999;28;20024;-73
2023/04/28 07:32:47;;;;;;;0.52;0.52;;;;;;;;;;5088736;28;20039;-72
2023/04/28 07:35:13;;;;;;;0.20;0.20;;;;;;;;;;5089271;28;20362;-73
2023/04/28 07:37:38;;;;;;;0.38;0.38;;;;;;;;;;5089245;28;20067;-75
2023/04/28 07:40:05;;;;;;;0.20;0.20;;;;;;;;;;5088994;28;20057;-76
2023/04/28 07:42:30;;;;;;;0.20;0.20;;;;;;;;;;5089482;28;20113;-75
2023/04/28 07:44:57;;;;;;;0.20;0.20;;;;;;;;;;5089280;28;20078;-74
2023/04/28 07:47:22;;;;;;;0.47;0.47;;;;;;;;;;5089915;28;20034;-73
2023/04/28 07:49:48;;;;;;;0.20;0.20;;;;;;;;;;5091045;28;20110;-73
2023/04/28 07:52:13;;;;;;;0.20;0.20;;;;;;;;;;5090853;28;20048;-73
2023/04/28 07:54:39;;;;;;;0.28;0.28;;;;;;;;;;5088905;28;20067;-73
2023/04/28 07:57:05;;;;;;;0.10;0.10;;;;;;;;;;5090019;28;20044;-74
2023/04/28 07:59:31;;;;;;;0.20;0.20;;;;;;;;;;5090882;28;20044;-74
2023/04/28 08:01:57;;;;;;;0.20;0.20;;;;;;;;;;5090768;28;20046;-73
2023/04/28 08:04:22;;;;;;;0.25;0.25;;;;;;;;;;5090754;28;20376;-74
2023/04/28 08:06:48;;;;;;;0.20;0.20;;;;;;;;;;5090722;28;20457;-76
2023/04/28 08:09:13;;;;;;;0.20;0.20;;;;;;;;;;5089911;28;20028;-73
2023/04/28 08:11:38;;;;;;;0.20;0.20;;;;;;;;;;5090553;28;20044;-72
2023/04/28 08:14:04;;;;;;;0.20;0.20;;;;;;;;;;5089935;28;20395;-74
2023/04/28 08:16:30;;;;;;;0.20;0.20;;;;;;;;;;5090292;28;20044;-77
2023/04/28 08:18:55;;;;;;;0.20;0.20;;;;;;;;;;5090673;28;20134;-73
2023/04/28 08:21:21;;;;;;;0.30;0.30;;;;;;;;;;5090647;28;20039;-75
2023/04/28 08:23:46;;;;;;;0.20;0.20;;;;;;;;;;5090133;28;20035;-74
2023/04/28 08:26:12;;;;;;;0.17;0.17;;;;;;;;;;5088962;28;20035;-73
2023/04/28 08:28:38;;;;;;;0.30;0.30;;;;;;;;;;5088512;28;20027;-73
2023/04/28 08:31:04;;;;;;;0.20;0.20;;;;;;;;;;5084194;28;20039;-75
2023/04/28 08:33:29;;;;;;;0.28;0.28;;;;;;;;;;5061994;28;20656;-74
2023/04/28 08:35:55;;;;;;;0.20;0.20;;;;;;;;;;5081742;28;20034;-75
2023/04/28 08:38:22;;;;;;;0.30;0.30;;;;;;;;;;5084288;28;20451;-72
2023/04/28 08:40:48;;;;;;;0.20;0.20;;;;;;;;;;5069484;28;20037;-73
2023/04/28 08:43:14;;;;;;;1.05;0.95;;;;;;;;;;5069264;28;20024;-73
2023/04/28 08:45:41;;;;;;;0.20;0.20;;;;;;;;;;5075703;28;20058;-76
2023/04/28 08:48:13;;;;;;;0.20;0.20;;;;;;;;;;5088943;28;20024;-73
2023/04/28 08:50:40;;;;;;;0.20;0.20;;;;;;;;;;5089165;28;20036;-73
2023/04/28 08:53:06;;;;;;;0.20;0.20;;;;;;;;;;5089592;28;20957;-74
2023/04/28 08:55:32;;;;;;;0.20;0.20;;;;;;;;;;5089467;28;20126;-73
2023/04/28 08:57:58;;;;;;;0.20;0.20;;;;;;;;;;5088901;28;20024;-74
2023/04/28 09:00:23;;;;;;;0.20;0.20;;;;;;;;;;5088489;28;20032;-73
2023/04/28 09:02:49;;;;;;;0.20;0.20;;;;;;;;;;5088911;28;20036;-73
2023/04/28 09:05:14;;;;;;;0.20;0.20;;;;;;;;;;5089473;28;20549;-74
2023/04/28 09:07:40;;;;;;;0.10;0.10;;;;;;;;;;5089139;28;20043;-73
2023/04/28 09:10:14;;;;;;;0.20;0.20;;;;;;;;;;5088825;28;20553;-74
2023/04/28 09:12:40;;;;;;;1.35;0.60;;;;;;;;;;5089041;28;20035;-72
2023/04/28 09:15:08;;;;;;;0.47;0.40;;;;;;;;;;5088543;28;20478;-73
2023/04/28 09:17:46;;;;;;;0.20;0.20;;;;;;;;;;5074471;28;20028;-73
2023/04/28 09:20:21;;;;;;;0.20;0.20;;;;;;;;;;5084818;28;20472;-76
2023/04/28 09:22:47;;;;;;;0.40;0.40;;;;;;;;;;5088329;28;20036;-73
2023/04/28 09:25:13;;;;;;;12.30;0.95;;;;;;;;;;5087065;28;20060;-74
2023/04/28 09:27:38;;;;;;;0.20;0.20;;;;;;;;;;5087291;28;20096;-74
2023/04/28 09:30:04;;;;;;;0.43;0.43;;;;;;;;;;5087115;28;20032;-72
2023/04/28 09:32:30;;;;;;;0.20;0.20;;;;;;;;;;5083748;28;20060;-73
2023/04/28 09:34:56;;;;;;;0.47;0.47;;;;;;;;;;5069005;28;20031;-74
2023/04/28 09:37:26;;;;;;;0.40;0.40;;;;;;;;;;5085722;28;20025;-78
2023/04/28 09:39:52;;;;;;;0.20;0.20;;;;;;;;;;5085445;28;20081;-71
2023/04/28 09:42:34;;;;;;;0.40;0.40;;;;;;;;;;5086140;28;20476;-72
2023/04/28 09:45:01;;;;;;;0.20;0.20;;;;;;;;;;5080510;28;20046;-71
2023/04/28 09:47:27;;;;;;;0.20;0.20;;;;;;;;;;5086932;28;20020;-72
2023/04/28 09:49:57;;;;;;;0.57;0.57;;;;;;;;;;5070343;28;20124;-71
2023/04/28 09:52:23;;;;;;;0.30;0.30;;;;;;;;;;5088324;28;20405;-72
2023/04/28 09:54:52;;;;;;;0.38;0.30;;;;;;;;;;5088493;28;20032;-71
2023/04/28 09:57:17;;;;;;;0.20;0.20;;;;;;;;;;5088383;28;20039;-71
2023/04/28 09:59:46;;;;;;;0.40;0.40;;;;;;;;;;5088361;28;20036;-71
2023/04/28 10:02:12;;;;;;;0.30;0.30;;;;;;;;;;5088001;28;20402;-71
2023/04/28 10:04:38;;;;;;;0.20;0.20;;;;;;;;;;5088186;28;20040;-71
2023/04/28 10:07:04;;;;;;;0.65;0.30;;;;;;;;;;5088827;28;20336;-71
2023/04/28 10:09:31;;;;;;;0.20;0.20;;;;;;;;;;5088047;28;20093;-72
2023/04/28 10:11:56;;;;;;;0.20;0.20;;;;;;;;;;5087901;28;20016;-72
2023/04/28 10:14:22;;;;;;;0.30;0.30;;;;;;;;;;5087815;28;20036;-71
2023/04/28 10:16:50;;;;;;;0.20;0.20;;;;;;;;;;5088693;28;20123;-73
2023/04/28 10:19:16;;;;;;;0.40;0.40;;;;;;;;;;5070286;28;20047;-72
2023/04/28 10:21:46;;;;;;;0.20;0.20;;;;;;;;;;5087834;28;20044;-71
2023/04/28 10:24:17;;;;;;;0.20;0.20;;;;;;;;;;5086799;28;20483;-71
2023/04/28 10:26:54;;;;;;;0.20;0.20;;;;;;;;;;5087607;28;20028;-72
2023/04/28 10:29:23;;;;;;;0.20;0.20;;;;;;;;;;5080633;28;20123;-71
2023/04/28 10:31:49;;;;;;;;;;;;;;;;;;5089461;28;20020;-72
2023/04/28 10:34:21;;;;;;;0.20;0.20;;;;;;;;;;5091720;28;20362;-71
2023/04/28 10:36:47;;;;;;;0.20;0.20;;;;;;;;;;5091829;28;20579;-71
2023/04/28 10:39:13;;;;;;;0.20;0.20;;;;;;;;;;5091235;28;20119;-72
2023/04/28 10:41:38;;;;;;;0.20;0.20;;;;;;;;;;5091491;28;20499;-71
2023/04/28 10:44:22;;;;;;;0.20;0.20;;;;;;;;;;5091055;28;20032;-72
2023/04/28 10:47:01;;;;;;;0.20;0.20;;;;;;;;;;5091168;28;20044;-72
2023/04/28 10:49:45;;;;;;;0.30;0.30;;;;;;;;;;5091380;28;20089;-71
2023/04/28 10:52:49;;;;;;;0.30;0.30;;;;;;;;;;5091862;28;20036;-71
2023/04/28 10:55:32;;;;;;;0.20;0.20;;;;;;;;;;5009233;28;20045;-71
2023/04/28 10:58:18;;;;;;;0.35;0.35;;;;;;;;;;5008976;28;20104;-70
2023/04/28 11:00:46;;;;;;;0.57;0.40;;;;;;;;;;5067736;28;20048;-72
2023/04/28 11:03:30;;;;;;;0.40;0.40;;;;;;;;;;5090954;28;20052;-72
2023/04/28 11:06:14;;;;;;;0.30;0.30;;;;;;;;;;5091122;28;20043;-71
2023/04/28 11:08:40;;;;;;;0.45;0.40;;;;;;;;;;5091125;28;20082;-71
2023/04/28 11:11:09;;;;;;;0.43;0.43;;;;;;;;;;5091142;28;20460;-70
2023/04/28 11:13:34;;;;;;;1.20;0.50;;;;;;;;;;5091829;28;20497;-71
2023/04/28 11:16:03;;;;;;;1.95;0.50;;;;;;;;;;5092296;28;20115;-71
2023/04/28 11:18:29;;;;;;;0.20;0.20;;;;;;;;;;5092916;28;20032;-71
2023/04/28 11:20:56;;;;;;;0.22;0.22;;;;;;;;;;5091378;28;20042;-71
2023/04/28 11:23:23;;;;;;;0.50;0.50;;;;;;;;;;5091633;28;20478;-71
2023/04/28 11:25:54;;;;;;;0.30;0.30;;;;;;;;;;5090818;28;20456;-71
2023/04/28 11:28:20;;;;;;;0.30;0.30;;;;;;;;;;5090758;28;20402;-72
2023/04/28 11:30:46;;;;;;;0.40;0.30;;;;;;;;;;5090845;28;20114;-71
2023/04/28 11:33:11;;;;;;;0.30;0.30;;;;;;;;;;5090715;28;20055;-71
2023/04/28 11:35:40;;;;;;;1.35;0.68;;;;;;;;;;5090888;28;20475;-71
2023/04/28 11:38:06;;;;;;;0.32;0.32;;;;;;;;;;5090665;28;20020;-72
2023/04/28 11:40:31;;;;;;;0.20;0.20;;;;;;;;;;5090843;28;20043;-72
2023/04/28 11:42:58;;;;;;;0.20;0.20;;;;;;;;;;5089335;28;20034;-70
2023/04/28 11:45:26;;;;;;;2.83;0.50;;;;;;;;;;5090462;28;20119;-71
2023/04/28 11:47:51;;;;;;;0.22;0.22;;;;;;;;;;5090208;28;20209;-71
2023/04/28 11:50:33;;;;;;;0.32;0.32;;;;;;;;;;5090299;28;20100;-71
2023/04/28 11:52:59;;;;;;;0.28;0.28;;;;;;;;;;5090495;28;20081;-71
2023/04/28 11:55:27;;;;;;;0.60;0.40;;;;;;;;;;5090573;28;20414;-71
2023/04/28 11:58:11;;;;;;;0.35;0.35;;;;;;;;;;5090406;28;20085;-70
2023/04/28 12:00:37;;;;;;;0.20;0.20;;;;;;;;;;5089690;28;20032;-73
2023/04/28 12:03:08;;;;;;;0.30;0.30;;;;;;;;;;5090046;28;20788;-71
2023/04/28 12:05:36;;;;;;;0.25;0.25;;;;;;;;;;5090172;28;20039;-72
2023/04/28 12:08:01;;;;;;;0.25;0.25;;;;;;;;;;5089845;28;20028;-71
2023/04/28 12:10:27;;;;;;;0.43;0.43;;;;;;;;;;5089946;28;20036;-71
2023/04/28 12:12:52;;;;;;;0.25;0.25;;;;;;;;;;5089895;28;20135;-71
2023/04/28 12:15:18;;;;;;;0.20;0.20;;;;;;;;;;5090224;28;20131;-71
2023/04/28 12:17:44;;;;;;;0.30;0.30;;;;;;;;;;5089958;28;20024;-71
2023/04/28 12:20:11;;;;;;;0.20;0.20;;;;;;;;;;5089784;28;20475;-70
2023/04/28 12:22:42;;;;;;;0.20;0.20;;;;;;;;;;5089729;28;20047;-69
2023/04/28 12:25:09;;;;;;;0.20;0.20;;;;;;;;;;5071503;28;20032;-72
2023/04/28 12:27:37;;;;;;;0.30;0.30;;;;;;;;;;5090129;28;20020;-70
2023/04/28 12:30:04;;;;;;;0.30;0.30;;;;;;;;;;5089894;28;20479;-71
2023/04/28 12:32:36;;;;;;;0.25;0.25;;;;;;;;;;5089194;28;20426;-72
2023/04/28 12:35:04;;;;;;;0.20;0.20;;;;;;;;;;5089658;28;20127;-71
2023/04/28 12:37:29;;;;;;;0.20;0.20;;;;;;;;;;5071314;28;20024;-71
2023/04/28 12:39:55;;;;;;;0.20;0.20;;;;;;;;;;5089610;28;20118;-71
2023/04/28 12:42:21;;;;;;;0.20;0.20;;;;;;;;;;5089727;28;20040;-71
2023/04/28 12:44:47;;;;;;;0.20;0.20;;;;;;;;;;5089696;28;20040;-71
2023/04/28 12:47:12;;;;;;;0.50;0.30;;;;;;;;;;5089080;28;20039;-71
2023/04/28 12:49:38;;;;;;;0.20;0.20;;;;;;;;;;5089769;28;20240;-71
2023/04/28 12:52:03;;;;;;;0.20;0.20;;;;;;;;;;5089446;28;20032;-71
2023/04/28 12:54:29;;;;;;;0.20;0.20;;;;;;;;;;5088790;28;20051;-72
2023/04/28 12:56:55;;;;;;;0.30;0.30;;;;;;;;;;5089251;28;20375;-71
2023/04/28 12:59:20;;;;;;;0.35;0.35;;;;;;;;;;5073923;28;20037;-71
2023/04/28 13:01:46;;;;;;;0.40;0.40;;;;;;;;;;5077692;28;20040;-72
2023/04/28 13:04:11;;;;;;;0.20;0.20;;;;;;;;;;5089013;28;20107;-73
2023/04/28 13:06:37;;;;;;;0.20;0.20;;;;;;;;;;5088503;28;20063;-71
2023/04/28 13:09:03;;;;;;;0.20;0.20;;;;;;;;;;5087625;28;20471;-72
2023/04/28 13:11:28;;;;;;;0.20;0.20;;;;;;;;;;5089175;28;20072;-72
2023/04/28 13:13:55;;;;;;;0.22;0.20;;;;;;;;;;5088851;28;20028;-72
2023/04/28 13:16:23;;;;;;;0.20;0.20;;;;;;;;;;5071019;28;20142;-72
2023/04/28 13:18:49;;;;;;;0.52;0.40;;;;;;;;;;5089129;28;20098;-72
2023/04/28 13:21:15;;;;;;;0.20;0.20;;;;;;;;;;5088717;28;20032;-72
2023/04/28 13:23:41;;;;;;;0.20;0.20;;;;;;;;;;5088496;28;20410;-71
2023/04/28 13:26:06;;;;;;;0.40;0.40;;;;;;;;;;5088955;28;20035;-71
2023/04/28 13:28:32;;;;;;;0.20;0.20;;;;;;;;;;5090955;28;20030;-71
2023/04/28 13:30:57;;;;;;;8.15;2.47;;;;;;;;;;5091518;28;20083;-71
2023/04/28 13:33:29;;;;;;;0.20;0.20;;;;;;;;;;5089482;28;20429;-71
2023/04/28 13:35:55;;;;;;;0.20;0.20;;;;;;;;;;5089044;28;20044;-71
2023/04/28 13:38:21;;;;;;;0.20;0.20;;;;;;;;;;5088783;28;20028;-71
2023/04/28 13:40:46;;;;;;;0.20;0.20;;;;;;;;;;5088727;28;20075;-71
2023/04/28 13:43:12;;;;;;;0.20;0.20;;;;;;;;;;5088639;28;20024;-70
2023/04/28 13:45:37;;;;;;;0.20;0.20;;;;;;;;;;5088681;28;20036;-71
2023/04/28 13:48:03;;;;;;;0.20;0.20;;;;;;;;;;5088823;28;20060;-71
2023/04/28 13:50:28;;;;;;;0.20;0.20;;;;;;;;;;5088537;28;20070;-71
2023/04/28 13:52:53;;;;;;;0.20;0.20;;;;;;;;;;5087170;28;20074;-71
2023/04/28 13:55:26;;;;;;;0.20;0.20;;;;;;;;;;5087531;28;20036;-71
2023/04/28 13:57:51;;;;;;;0.30;0.30;;;;;;;;;;5088279;28;20032;-70
2023/04/28 14:00:19;;;;;;;17.63;4.93;;;;;;;;;;5088662;28;20385;-70
2023/04/28 14:02:49;;;;;;;0.20;0.20;;;;;;;;;;5060905;28;20171;-70
2023/04/28 14:05:16;;;;;;;0.30;0.30;;;;;;;;;;5085346;28;20032;-71
2023/04/28 14:07:42;;;;;;;4.95;0.40;;;;;;;;;;5086048;28;20042;-73
2023/04/28 14:10:07;;;;;;;0.30;0.30;;;;;;;;;;5087374;28;20039;-71
2023/04/28 14:12:33;;;;;;;2.72;0.57;;;;;;;;;;5087733;28;20025;-71
2023/04/28 14:14:58;;;;;;;1.60;0.20;;;;;;;;;;5088211;28;20046;-70
2023/04/28 14:17:24;;;;;;;0.20;0.20;;;;;;;;;;5088213;28;20054;-71
2023/04/28 14:19:49;;;;;;;0.40;0.40;;;;;;;;;;5088054;28;20089;-71
2023/04/28 14:22:14;;;;;;;2.78;0.82;;;;;;;;;;5088406;28;20032;-72
2023/04/28 14:24:41;;;;;;;0.28;0.28;;;;;;;;;;5087162;28;20051;-71
2023/04/28 14:27:07;;;;;;;0.63;0.40;;;;;;;;;;5087574;28;20032;-71
2023/04/28 14:29:32;;;;;;;0.35;0.35;;;;;;;;;;5087835;28;20036;-70
2023/04/28 14:31:57;;;;;;;1.05;0.65;;;;;;;;;;5087796;28;20040;-70
2023/04/28 14:34:23;;;;;;;2.58;0.40;;;;;;;;;;5087903;28;20035;-72
2023/04/28 14:36:48;;;;;;;0.70;0.60;;;;;;;;;;5086960;28;20448;-70
2023/04/28 14:39:14;;;;;;;0.50;0.50;;;;;;;;;;5088729;28;20068;-70
2023/04/28 14:41:40;;;;;;;0.20;0.20;;;;;;;;;;5087295;28;20060;-72